createdAt,value
2022-12-20T00:00:37.408Z,11.50
2022-12-20T00:03:08.424Z,11.50
2022-12-20T00:05:40.440Z,11.50
2022-12-20T00:08:13.277Z,11.50
2022-12-20T00:10:46.591Z,11.50
2022-12-20T00:13:17.402Z,11.50
2022-12-20T00:15:47.859Z,11.50
2022-12-20T00:18:18.429Z,11.50
2022-12-20T00:23:38.629Z,11.50
2022-12-20T00:26:31.577Z,11.50
2022-12-20T00:29:21.718Z,11.50
2022-12-20T00:31:52.728Z,11.50
2022-12-20T00:34:23.806Z,11.50
2022-12-20T00:36:55.020Z,11.50
2022-12-20T00:39:25.415Z,11.50
2022-12-20T00:41:55.741Z,11.50
2022-12-20T00:44:26.798Z,11.50
2022-12-20T00:47:00.237Z,11.50
2022-12-20T00:49:31.118Z,11.50
2022-12-20T00:52:01.983Z,11.50
2022-12-20T00:54:32.640Z,11.50
2022-12-20T00:57:04.548Z,11.60
2022-12-20T00:59:36.476Z,11.50
2022-12-20T01:02:07.483Z,11.60
2022-12-20T01:04:58.057Z,11.60
2022-12-20T01:07:28.563Z,11.60
2022-12-20T01:10:02.423Z,11.60
2022-12-20T01:12:32.966Z,11.60
2022-12-20T01:15:05.443Z,11.60
2022-12-20T01:17:36.455Z,11.60
2022-12-20T01:20:09.022Z,11.60
2022-12-20T01:22:45.520Z,11.60
2022-12-20T01:25:21.379Z,11.60
2022-12-20T01:27:52.244Z,11.60
2022-12-20T01:30:22.889Z,11.60
2022-12-20T01:32:53.429Z,11.60
2022-12-20T01:35:27.664Z,11.60
2022-12-20T01:37:58.283Z,11.60
2022-12-20T01:40:28.835Z,11.60
2022-12-20T01:42:59.334Z,11.60
2022-12-20T01:45:32.417Z,11.60
2022-12-20T01:48:03.163Z,11.60
2022-12-20T01:50:33.550Z,11.60
2022-12-20T01:53:08.577Z,11.60
2022-12-20T01:56:02.826Z,11.60
2022-12-20T01:58:34.194Z,11.60
2022-12-20T02:01:04.954Z,11.60
2022-12-20T02:03:35.642Z,11.60
2022-12-20T02:06:28.669Z,11.60
2022-12-20T02:09:02.420Z,11.70
2022-12-20T02:12:17.600Z,11.60
2022-12-20T02:15:43.614Z,11.70
2022-12-20T02:18:38.352Z,11.70
2022-12-20T02:21:24.797Z,11.70
2022-12-20T02:24:12.512Z,11.70
2022-12-20T02:26:43.776Z,11.70
2022-12-20T02:29:17.649Z,11.70
2022-12-20T02:31:51.542Z,11.70
2022-12-20T02:34:26.542Z,11.70
2022-12-20T02:36:57.030Z,11.70
2022-12-20T02:39:30.749Z,11.70
2022-12-20T02:42:14.900Z,11.80
2022-12-20T02:45:10.108Z,11.70
2022-12-20T02:47:55.937Z,11.80
2022-12-20T02:50:38.422Z,11.70
2022-12-20T02:53:10.595Z,11.70
2022-12-20T02:55:54.240Z,11.70
2022-12-20T02:58:39.278Z,11.70
2022-12-20T03:01:20.841Z,11.70
2022-12-20T03:03:53.192Z,11.70
2022-12-20T03:06:24.223Z,11.80
2022-12-20T03:08:54.886Z,11.80
2022-12-20T03:11:28.869Z,11.80
2022-12-20T03:14:00.178Z,11.80
2022-12-20T03:16:30.970Z,11.80
2022-12-20T03:19:01.628Z,11.80
2022-12-20T03:21:34.396Z,11.80
2022-12-20T03:24:06.808Z,11.80
2022-12-20T03:26:40.899Z,11.80
2022-12-20T03:29:12.133Z,11.80
2022-12-20T03:31:43.548Z,11.80
2022-12-20T03:34:16.380Z,11.80
2022-12-20T03:36:47.127Z,11.80
2022-12-20T03:39:18.755Z,11.80
2022-12-20T03:41:50.085Z,11.70
2022-12-20T03:44:42.119Z,11.70
2022-12-20T03:47:35.306Z,11.70
2022-12-20T03:50:08.010Z,11.80
2022-12-20T03:52:39.406Z,11.80
2022-12-20T03:55:11.738Z,11.80
2022-12-20T03:57:48.033Z,11.70
2022-12-20T04:00:39.931Z,11.70
2022-12-20T04:03:48.470Z,11.80
2022-12-20T04:06:20.171Z,11.80
2022-12-20T04:08:54.132Z,11.80
2022-12-20T04:14:18.422Z,11.80
2022-12-20T04:16:49.175Z,11.80
2022-12-20T04:19:22.592Z,11.80
2022-12-20T04:21:54.435Z,11.80
2022-12-20T04:24:27.335Z,11.80
2022-12-20T04:27:18.184Z,11.80
2022-12-20T04:29:48.835Z,11.80
2022-12-20T04:32:21.747Z,11.80
2022-12-20T04:34:53.629Z,11.80
2022-12-20T04:37:24.273Z,11.80
2022-12-20T04:39:57.716Z,11.80
2022-12-20T04:42:40.359Z,11.80
2022-12-20T04:45:15.737Z,11.80
2022-12-20T04:47:46.608Z,11.80
2022-12-20T04:50:20.648Z,11.80
2022-12-20T04:53:09.356Z,11.80
2022-12-20T04:55:41.375Z,11.80
2022-12-20T04:58:14.070Z,11.80
2022-12-20T05:00:45.185Z,11.80
2022-12-20T05:03:42.257Z,11.80
2022-12-20T05:06:13.978Z,11.80
2022-12-20T05:08:45.140Z,11.80
2022-12-20T05:13:59.334Z,11.80
2022-12-20T05:16:33.906Z,11.80
2022-12-20T05:19:06.198Z,11.80
2022-12-20T05:22:06.713Z,11.90
2022-12-20T05:24:58.977Z,11.90
2022-12-20T05:27:37.271Z,11.90
2022-12-20T05:30:27.903Z,11.80
2022-12-20T05:33:00.022Z,11.90
2022-12-20T05:35:34.015Z,11.90
2022-12-20T05:38:09.341Z,11.90
2022-12-20T05:40:43.892Z,11.90
2022-12-20T05:43:15.059Z,11.90
2022-12-20T05:45:52.118Z,11.90
2022-12-20T05:48:35.844Z,11.90
2022-12-20T05:51:08.504Z,11.90
2022-12-20T05:53:52.844Z,11.90
2022-12-20T05:56:30.035Z,11.90
2022-12-20T05:59:02.095Z,11.90
2022-12-20T06:01:34.514Z,11.90
2022-12-20T06:04:05.387Z,11.90
2022-12-20T06:06:37.358Z,11.90
2022-12-20T06:09:08.280Z,11.90
2022-12-20T06:11:46.840Z,11.90
2022-12-20T06:14:18.564Z,11.90
2022-12-20T06:16:54.718Z,12.00
2022-12-20T06:19:25.413Z,12.00
2022-12-20T06:21:58.294Z,12.00
2022-12-20T06:24:49.227Z,12.00
2022-12-20T06:27:24.576Z,12.00
2022-12-20T06:30:09.877Z,12.00
2022-12-20T06:33:11.735Z,12.00
2022-12-20T06:35:45.226Z,12.00
2022-12-20T06:38:17.617Z,12.00
2022-12-20T06:40:53.249Z,12.00
2022-12-20T06:43:24.317Z,12.00
2022-12-20T06:45:54.908Z,12.00
2022-12-20T06:48:25.776Z,12.00
2022-12-20T06:50:57.560Z,12.00
2022-12-20T06:53:33.576Z,12.00
2022-12-20T06:56:06.336Z,12.00
2022-12-20T06:58:40.507Z,12.00
2022-12-20T07:01:11.503Z,12.00
2022-12-20T07:03:42.063Z,12.00
2022-12-20T07:06:20.022Z,12.00
2022-12-20T07:08:54.550Z,12.00
2022-12-20T07:11:25.211Z,12.00
2022-12-20T07:14:02.270Z,12.00
2022-12-20T07:16:35.458Z,12.00
2022-12-20T07:19:07.044Z,12.00
2022-12-20T07:21:40.729Z,12.00
2022-12-20T07:24:19.930Z,12.00
2022-12-20T07:26:50.669Z,12.00
2022-12-20T07:29:21.421Z,12.00
2022-12-20T07:32:13.241Z,12.00
2022-12-20T07:34:44.072Z,12.00
2022-12-20T07:37:14.674Z,12.00
2022-12-20T07:39:45.314Z,12.00
2022-12-20T07:42:19.984Z,12.00
2022-12-20T07:44:53.510Z,12.00
2022-12-20T07:47:45.044Z,12.00
2022-12-20T07:50:15.659Z,12.00
2022-12-20T07:52:54.308Z,12.00
2022-12-20T07:55:26.981Z,12.00
2022-12-20T07:58:06.234Z,12.00
2022-12-20T08:00:41.478Z,12.00
2022-12-20T08:03:21.977Z,12.00
2022-12-20T08:05:58.982Z,12.00
2022-12-20T08:08:33.421Z,12.00
2022-12-20T08:11:09.702Z,12.00
2022-12-20T08:13:46.018Z,12.00
2022-12-20T08:16:17.403Z,12.00
2022-12-20T08:18:48.283Z,12.00
2022-12-20T08:21:23.718Z,12.00
2022-12-20T08:23:54.540Z,12.00
2022-12-20T08:26:25.304Z,12.00
2022-12-20T08:28:57.147Z,12.00
2022-12-20T08:31:27.675Z,12.00
2022-12-20T08:33:58.306Z,12.00
2022-12-20T08:36:28.813Z,12.00
2022-12-20T08:38:59.176Z,12.00
2022-12-20T08:41:29.679Z,12.00
2022-12-20T08:44:02.939Z,12.00
2022-12-20T08:46:33.649Z,12.00
2022-12-20T08:49:06.190Z,12.00
2022-12-20T08:51:37.853Z,12.00
2022-12-20T08:54:12.475Z,12.00
2022-12-20T08:56:43.033Z,12.00
2022-12-20T08:59:14.009Z,12.00
2022-12-20T09:01:44.828Z,12.00
2022-12-20T09:04:16.617Z,12.00
2022-12-20T09:06:47.021Z,12.00
2022-12-20T09:09:18.226Z,12.00
2022-12-20T09:11:54.832Z,12.00
2022-12-20T09:14:26.124Z,12.00
2022-12-20T09:16:56.804Z,12.00
2022-12-20T09:19:27.333Z,12.00
2022-12-20T09:22:03.818Z,12.00
2022-12-20T09:24:35.680Z,12.00
2022-12-20T09:27:09.396Z,11.90
2022-12-20T09:29:39.830Z,12.00
2022-12-20T09:32:11.305Z,12.00
2022-12-20T09:35:01.444Z,12.00
2022-12-20T09:37:38.936Z,12.00
2022-12-20T09:40:22.764Z,12.00
2022-12-20T09:42:54.823Z,12.00
2022-12-20T09:45:33.306Z,12.00
2022-12-20T09:48:03.981Z,12.00
2022-12-20T09:50:50.118Z,12.00
2022-12-20T09:54:06.727Z,12.00
2022-12-20T09:57:09.832Z,12.00
2022-12-20T09:59:49.984Z,12.00
2022-12-20T10:02:56.562Z,11.90
2022-12-20T10:05:38.949Z,12.00
2022-12-20T10:08:45.216Z,11.90
2022-12-20T10:11:42.217Z,12.00
2022-12-20T10:14:41.655Z,12.00
2022-12-20T10:20:45.496Z,12.00
2022-12-20T10:23:42.990Z,12.00
2022-12-20T10:26:14.785Z,12.00
2022-12-20T10:28:52.250Z,12.00
2022-12-20T10:31:25.444Z,12.00
2022-12-20T10:33:56.186Z,12.10
2022-12-20T10:36:35.346Z,12.00
2022-12-20T10:39:09.207Z,12.00
2022-12-20T10:41:42.880Z,12.00
2022-12-20T10:44:27.282Z,12.00
2022-12-20T10:47:03.595Z,12.00
2022-12-20T10:49:42.143Z,12.00
2022-12-20T10:52:14.500Z,12.00
2022-12-20T10:54:47.907Z,12.00
2022-12-20T10:57:27.554Z,12.00
2022-12-20T11:00:06.539Z,12.00
2022-12-20T11:02:42.156Z,12.00
2022-12-20T11:05:15.101Z,12.00
2022-12-20T11:10:49.363Z,12.00
2022-12-20T11:13:30.944Z,12.00
2022-12-20T11:16:03.021Z,12.00
2022-12-20T11:18:51.445Z,12.00
2022-12-20T11:21:49.124Z,12.00
2022-12-20T11:24:45.760Z,12.00
2022-12-20T11:27:27.858Z,12.00
2022-12-20T11:30:12.267Z,12.00
2022-12-20T11:33:00.891Z,12.00
2022-12-20T11:35:34.240Z,12.00
2022-12-20T11:38:15.947Z,12.00
2022-12-20T11:41:34.099Z,12.00
2022-12-20T11:45:10.218Z,12.00
2022-12-20T11:47:51.804Z,12.00
2022-12-20T11:50:51.336Z,12.00
2022-12-20T11:53:53.865Z,12.00
2022-12-20T11:56:47.227Z,12.00
2022-12-20T11:59:40.252Z,12.00
2022-12-20T12:02:51.613Z,12.00
2022-12-20T12:06:09.876Z,12.00
2022-12-20T12:09:17.152Z,12.00
2022-12-20T12:12:27.560Z,12.00
2022-12-20T12:15:02.837Z,12.00
2022-12-20T12:17:46.336Z,12.00
2022-12-20T12:21:06.604Z,12.00
2022-12-20T12:24:02.704Z,12.00
2022-12-20T12:26:43.444Z,12.00
2022-12-20T12:29:22.365Z,12.00
2022-12-20T12:32:03.009Z,12.00
2022-12-20T12:34:52.395Z,12.00
2022-12-20T12:37:58.352Z,12.00
2022-12-20T12:40:52.087Z,12.00
2022-12-20T12:43:53.677Z,12.00
2022-12-20T12:46:30.455Z,12.00
2022-12-20T12:49:06.427Z,12.00
2022-12-20T12:51:41.120Z,12.00
2022-12-20T12:54:17.634Z,12.00
2022-12-20T12:56:51.161Z,12.00
2022-12-20T12:59:35.768Z,12.00
2022-12-20T13:02:10.566Z,12.00
2022-12-20T13:05:11.549Z,12.00
2022-12-20T13:07:43.163Z,12.00
2022-12-20T13:10:16.952Z,12.00
2022-12-20T13:12:54.955Z,12.00
2022-12-20T13:15:25.777Z,12.00
2022-12-20T13:18:26.575Z,11.90
2022-12-20T13:21:20.572Z,11.90
2022-12-20T13:24:50.808Z,12.00
2022-12-20T13:27:27.254Z,11.90
2022-12-20T13:30:13.180Z,12.00
2022-12-20T13:32:50.144Z,12.00
2022-12-20T13:35:33.152Z,12.00
2022-12-20T13:38:11.858Z,12.00
2022-12-20T13:40:51.055Z,12.00
2022-12-20T13:43:25.478Z,12.00
2022-12-20T13:46:37.891Z,12.00
2022-12-20T13:49:19.648Z,12.00
2022-12-20T13:51:50.338Z,12.00
2022-12-20T13:54:33.660Z,12.00
2022-12-20T13:57:08.945Z,12.00
2022-12-20T13:59:40.784Z,12.00
2022-12-20T14:02:32.166Z,12.00
2022-12-20T14:05:12.688Z,12.00
2022-12-20T14:07:44.592Z,12.00
2022-12-20T14:10:28.817Z,12.00
2022-12-20T14:12:59.223Z,12.00
2022-12-20T14:15:36.746Z,12.00
2022-12-20T14:18:25.545Z,12.00
2022-12-20T14:21:04.412Z,11.90
2022-12-20T14:23:44.179Z,11.90
2022-12-20T14:26:41.129Z,12.00
2022-12-20T14:29:21.929Z,12.00
2022-12-20T14:31:52.782Z,12.00
2022-12-20T14:34:39.657Z,12.00
2022-12-20T14:37:39.377Z,12.00
2022-12-20T14:40:13.831Z,11.90
2022-12-20T14:42:46.282Z,11.90
2022-12-20T14:45:18.035Z,11.90
2022-12-20T14:47:58.976Z,12.00
2022-12-20T14:50:40.440Z,11.90
2022-12-20T14:53:29.075Z,11.90
2022-12-20T14:56:00.441Z,12.00
2022-12-20T14:58:33.564Z,12.00
2022-12-20T15:01:31.802Z,12.00
2022-12-20T15:04:04.050Z,12.00
2022-12-20T15:06:47.019Z,12.00
2022-12-20T15:09:21.716Z,12.00
2022-12-20T15:11:53.360Z,11.90
2022-12-20T15:14:38.688Z,11.90
2022-12-20T15:17:21.429Z,11.90
2022-12-20T15:19:57.201Z,12.00
2022-12-20T15:22:27.727Z,12.00
2022-12-20T15:25:11.627Z,12.00
2022-12-20T15:27:42.294Z,12.00
2022-12-20T15:30:16.422Z,12.00
2022-12-20T15:32:55.526Z,11.90
2022-12-20T15:35:26.989Z,12.00
2022-12-20T15:37:57.474Z,12.00
2022-12-20T15:40:28.970Z,12.00
2022-12-20T15:43:03.262Z,11.90
2022-12-20T15:45:36.394Z,12.00
2022-12-20T15:48:07.441Z,11.90
2022-12-20T15:50:50.546Z,11.90
2022-12-20T15:53:29.979Z,11.90
2022-12-20T15:56:01.280Z,11.90
2022-12-20T15:58:35.930Z,12.00
2022-12-20T16:01:14.080Z,11.90
2022-12-20T16:03:46.076Z,11.90
2022-12-20T16:06:17.759Z,11.90
2022-12-20T16:08:48.374Z,11.90
2022-12-20T16:11:28.911Z,12.00
2022-12-20T16:14:00.619Z,12.00
2022-12-20T16:16:36.796Z,11.90
2022-12-20T16:19:07.524Z,12.00
2022-12-20T16:21:50.120Z,11.90
2022-12-20T16:24:25.330Z,12.00
2022-12-20T16:26:56.909Z,11.90
2022-12-20T16:29:27.379Z,11.90
2022-12-20T16:31:57.897Z,11.90
2022-12-20T16:34:28.435Z,11.90
2022-12-20T16:36:59.091Z,11.90
2022-12-20T16:42:20.474Z,11.90
2022-12-20T16:44:55.822Z,11.90
2022-12-20T16:47:26.476Z,11.90
2022-12-20T16:49:58.173Z,11.90
2022-12-20T16:52:28.765Z,11.90
2022-12-20T16:54:59.379Z,11.90
2022-12-20T16:57:29.849Z,11.90
2022-12-20T17:00:01.667Z,11.90
2022-12-20T17:02:35.643Z,12.00
2022-12-20T17:05:17.402Z,11.90
2022-12-20T17:07:47.890Z,11.90
2022-12-20T17:13:01.954Z,11.90
2022-12-20T17:15:36.229Z,11.90
2022-12-20T17:18:07.986Z,11.90
2022-12-20T17:20:58.479Z,11.90
2022-12-20T17:23:43.836Z,11.90
2022-12-20T17:26:19.898Z,11.90
2022-12-20T17:29:01.635Z,11.90
2022-12-20T17:31:43.796Z,11.80
2022-12-20T17:34:27.445Z,11.80
2022-12-20T17:37:00.185Z,11.80
2022-12-20T17:39:30.823Z,11.80
2022-12-20T17:42:02.344Z,11.80
2022-12-20T17:44:34.105Z,11.80
2022-12-20T17:47:06.632Z,11.80
2022-12-20T17:49:37.250Z,11.80
2022-12-20T17:52:12.606Z,11.80
2022-12-20T17:54:44.919Z,11.80
2022-12-20T17:57:18.637Z,11.80
2022-12-20T17:59:49.113Z,11.80
2022-12-20T18:02:27.950Z,11.80
2022-12-20T18:04:58.895Z,11.80
2022-12-20T18:07:29.834Z,11.80
2022-12-20T18:10:00.673Z,11.80
2022-12-20T18:12:37.259Z,11.80
2022-12-20T18:15:10.335Z,11.80
2022-12-20T18:17:43.138Z,11.80
2022-12-20T18:20:14.262Z,11.80
2022-12-20T18:22:44.944Z,11.80
2022-12-20T18:25:15.794Z,11.80
2022-12-20T18:27:46.494Z,11.80
2022-12-20T18:30:17.417Z,11.80
2022-12-20T18:32:49.268Z,11.80
2022-12-20T18:35:20.014Z,11.80
2022-12-20T18:37:50.685Z,11.70
2022-12-20T18:40:47.176Z,11.70
2022-12-20T18:43:17.899Z,11.70
2022-12-20T18:45:48.319Z,11.70
2022-12-20T18:48:19.656Z,11.70
2022-12-20T18:50:50.113Z,11.70
2022-12-20T18:53:20.719Z,11.70
2022-12-20T18:55:51.403Z,11.70
2022-12-20T18:58:21.851Z,11.70
2022-12-20T19:00:58.180Z,11.70
2022-12-20T19:03:30.950Z,11.70
2022-12-20T19:06:02.271Z,11.70
2022-12-20T19:08:33.274Z,11.70
2022-12-20T19:11:12.026Z,11.70
2022-12-20T19:13:43.037Z,11.70
2022-12-20T19:16:17.125Z,11.70
2022-12-20T19:18:50.613Z,11.70
2022-12-20T19:21:28.038Z,11.70
2022-12-20T19:24:01.373Z,11.70
2022-12-20T19:26:32.048Z,11.70
2022-12-20T19:29:02.460Z,11.70
2022-12-20T19:31:35.532Z,11.60
2022-12-20T19:34:12.809Z,11.60
2022-12-20T19:36:49.513Z,11.60
2022-12-20T19:39:25.787Z,11.60
2022-12-20T19:42:22.323Z,11.70
2022-12-20T19:44:46.705Z,11.60
2022-12-20T19:47:17.390Z,11.60
2022-12-20T19:49:48.127Z,11.60
2022-12-20T19:52:29.614Z,11.60
2022-12-20T19:55:01.677Z,11.60
2022-12-20T19:57:32.329Z,11.60
2022-12-20T20:00:03.094Z,11.60
2022-12-20T20:02:41.877Z,11.60
2022-12-20T20:05:15.208Z,11.60
2022-12-20T20:07:46.252Z,11.60
2022-12-20T20:10:17.045Z,11.60
2022-12-20T20:12:47.491Z,11.60
2022-12-20T20:15:18.064Z,11.60
2022-12-20T20:17:48.669Z,11.60
2022-12-20T20:20:19.337Z,11.60
2022-12-20T20:22:50.247Z,11.60
2022-12-20T20:25:20.868Z,11.60
2022-12-20T20:27:51.244Z,11.60
2022-12-20T20:30:23.190Z,11.60
2022-12-20T20:32:53.821Z,11.60
2022-12-20T20:35:24.511Z,11.50
2022-12-20T20:37:56.640Z,11.60
2022-12-20T20:40:27.611Z,11.50
2022-12-20T20:42:58.269Z,11.60
2022-12-20T20:45:28.714Z,11.60
2022-12-20T20:48:02.631Z,11.60
2022-12-20T20:50:36.545Z,11.60
2022-12-20T20:53:08.195Z,11.60
2022-12-20T20:55:39.001Z,11.60
2022-12-20T20:58:09.561Z,11.50
2022-12-20T21:00:40.340Z,11.50
2022-12-20T21:03:12.331Z,11.50
2022-12-20T21:08:34.499Z,11.50
2022-12-20T21:11:10.658Z,11.50
2022-12-20T21:13:41.290Z,11.50
2022-12-20T21:16:21.767Z,11.50
2022-12-20T21:18:57.956Z,11.50
2022-12-20T21:21:29.413Z,11.50
2022-12-20T21:24:00.205Z,11.50
2022-12-20T21:26:31.128Z,11.40
2022-12-20T21:29:02.488Z,11.40
2022-12-20T21:31:35.089Z,11.40
2022-12-20T21:34:06.170Z,11.40
2022-12-20T21:36:37.121Z,11.40
2022-12-20T21:39:07.619Z,11.40
2022-12-20T21:41:40.996Z,11.50
2022-12-20T21:44:14.006Z,11.50
2022-12-20T21:46:44.541Z,11.40
2022-12-20T21:49:15.125Z,11.40
2022-12-20T21:51:45.825Z,11.40
2022-12-20T21:54:16.276Z,11.40
2022-12-20T21:56:46.888Z,11.40
2022-12-20T21:59:17.432Z,11.40
2022-12-20T22:01:48.450Z,11.40
2022-12-20T22:04:21.148Z,11.40
2022-12-20T22:06:51.448Z,11.40
2022-12-20T22:09:22.012Z,11.50
2022-12-20T22:11:52.731Z,11.40
2022-12-20T22:14:26.098Z,11.40
2022-12-20T22:16:56.638Z,11.40
2022-12-20T22:19:27.326Z,11.40
2022-12-20T22:21:58.693Z,11.40
2022-12-20T22:24:29.538Z,11.40
2022-12-20T22:27:00.010Z,11.40
2022-12-20T22:29:30.841Z,11.40
2022-12-20T22:32:01.538Z,11.40
2022-12-20T22:34:32.313Z,11.40
2022-12-20T22:37:02.821Z,11.40
2022-12-20T22:39:33.680Z,11.30
2022-12-20T22:42:04.462Z,11.30
2022-12-20T22:44:35.157Z,11.30
2022-12-20T22:47:05.828Z,11.40
2022-12-20T22:49:39.601Z,11.30
2022-12-20T22:52:10.952Z,11.30
2022-12-20T22:54:43.452Z,11.40
2022-12-20T22:57:16.083Z,11.40
2022-12-20T22:59:46.499Z,11.30
2022-12-20T23:02:17.099Z,11.40
2022-12-20T23:04:47.579Z,11.30
2022-12-20T23:07:18.428Z,11.30
2022-12-20T23:09:49.671Z,11.30
2022-12-20T23:12:38.300Z,11.30
2022-12-20T23:15:32.337Z,11.30
2022-12-20T23:18:02.888Z,11.30
2022-12-20T23:20:51.250Z,11.30
2022-12-20T23:23:21.641Z,11.30
2022-12-20T23:25:52.026Z,11.30
2022-12-20T23:28:22.505Z,11.30
2022-12-20T23:30:55.523Z,11.30
2022-12-20T23:33:25.840Z,11.30
2022-12-20T23:35:59.921Z,11.30
2022-12-20T23:38:32.793Z,11.30
2022-12-20T23:41:07.815Z,11.30
2022-12-20T23:43:39.743Z,11.30
2022-12-20T23:46:13.543Z,11.20
2022-12-20T23:48:44.619Z,11.30
2022-12-20T23:51:15.288Z,11.30
2022-12-20T23:53:46.305Z,11.30
2022-12-20T23:56:19.668Z,11.30
2022-12-20T23:58:55.240Z,11.30
